sensor_id;sensor_type;location;lat;lon;timestamp;P1;durP1;ratioP1;P2;durP2;ratioP2
20294;SDS011;10306;52.128;5.208;2023-01-24T00:00:03;13.97;;;10.00;;
20294;SDS011;10306;52.128;5.208;2023-01-24T00:02:30;13.80;;;9.73;;
20294;SDS011;10306;52.128;5.208;2023-01-24T00:04:55;14.93;;;11.00;;
20294;SDS011;10306;52.128;5.208;2023-01-24T00:07:21;15.60;;;10.93;;
20294;SDS011;10306;52.128;5.208;2023-01-24T00:09:47;17.13;;;10.47;;
20294;SDS011;10306;52.128;5.208;2023-01-24T00:12:13;17.00;;;10.97;;
20294;SDS011;10306;52.128;5.208;2023-01-24T00:14:39;14.63;;;9.97;;
20294;SDS011;10306;52.128;5.208;2023-01-24T00:17:05;15.63;;;10.10;;
20294;SDS011;10306;52.128;5.208;2023-01-24T00:19:32;16.90;;;10.30;;
20294;SDS011;10306;52.128;5.208;2023-01-24T00:21:58;18.63;;;11.00;;
20294;SDS011;10306;52.128;5.208;2023-01-24T00:24:25;16.93;;;10.33;;
20294;SDS011;10306;52.128;5.208;2023-01-24T00:26:51;15.23;;;10.00;;
20294;SDS011;10306;52.128;5.208;2023-01-24T00:29:17;14.47;;;9.57;;
20294;SDS011;10306;52.128;5.208;2023-01-24T00:31:43;16.03;;;10.30;;
20294;SDS011;10306;52.128;5.208;2023-01-24T00:34:09;15.27;;;10.30;;
20294;SDS011;10306;52.128;5.208;2023-01-24T00:36:35;14.47;;;9.27;;
20294;SDS011;10306;52.128;5.208;2023-01-24T00:39:01;13.67;;;9.63;;
20294;SDS011;10306;52.128;5.208;2023-01-24T00:41:27;15.47;;;10.27;;
20294;SDS011;10306;52.128;5.208;2023-01-24T00:43:53;14.10;;;10.37;;
20294;SDS011;10306;52.128;5.208;2023-01-24T00:46:19;13.83;;;9.47;;
20294;SDS011;10306;52.128;5.208;2023-01-24T00:48:45;15.80;;;10.10;;
20294;SDS011;10306;52.128;5.208;2023-01-24T00:51:11;15.10;;;9.47;;
20294;SDS011;10306;52.128;5.208;2023-01-24T00:53:37;17.87;;;10.10;;
20294;SDS011;10306;52.128;5.208;2023-01-24T00:56:03;16.17;;;9.80;;
20294;SDS011;10306;52.128;5.208;2023-01-24T00:58:29;19.40;;;11.27;;
20294;SDS011;10306;52.128;5.208;2023-01-24T01:00:57;16.83;;;11.30;;
20294;SDS011;10306;52.128;5.208;2023-01-24T01:03:25;15.43;;;10.67;;
20294;SDS011;10306;52.128;5.208;2023-01-24T01:05:56;16.53;;;10.93;;
20294;SDS011;10306;52.128;5.208;2023-01-24T01:08:22;15.13;;;10.33;;
20294;SDS011;10306;52.128;5.208;2023-01-24T01:10:48;14.97;;;9.90;;
20294;SDS011;10306;52.128;5.208;2023-01-24T01:13:14;16.03;;;10.53;;
20294;SDS011;10306;52.128;5.208;2023-01-24T01:15:40;16.07;;;10.23;;
20294;SDS011;10306;52.128;5.208;2023-01-24T01:18:06;14.00;;;10.03;;
20294;SDS011;10306;52.128;5.208;2023-01-24T01:20:32;17.47;;;10.50;;
20294;SDS011;10306;52.128;5.208;2023-01-24T01:22:58;15.60;;;10.57;;
20294;SDS011;10306;52.128;5.208;2023-01-24T01:25:24;16.43;;;9.93;;
20294;SDS011;10306;52.128;5.208;2023-01-24T01:27:50;17.27;;;10.50;;
20294;SDS011;10306;52.128;5.208;2023-01-24T01:30:16;14.83;;;10.60;;
20294;SDS011;10306;52.128;5.208;2023-01-24T01:32:42;17.20;;;11.33;;
20294;SDS011;10306;52.128;5.208;2023-01-24T01:35:08;17.87;;;11.20;;
20294;SDS011;10306;52.128;5.208;2023-01-24T01:37:34;15.80;;;10.80;;
20294;SDS011;10306;52.128;5.208;2023-01-24T01:40:00;16.83;;;11.10;;
20294;SDS011;10306;52.128;5.208;2023-01-24T01:42:36;20.33;;;12.17;;
20294;SDS011;10306;52.128;5.208;2023-01-24T01:47:47;20.93;;;11.87;;
20294;SDS011;10306;52.128;5.208;2023-01-24T01:50:22;18.40;;;11.30;;
20294;SDS011;10306;52.128;5.208;2023-01-24T01:52:50;17.50;;;11.13;;
20294;SDS011;10306;52.128;5.208;2023-01-24T01:55:16;17.33;;;11.30;;
20294;SDS011;10306;52.128;5.208;2023-01-24T01:57:43;14.87;;;11.07;;
20294;SDS011;10306;52.128;5.208;2023-01-24T02:02:36;17.03;;;11.47;;
20294;SDS011;10306;52.128;5.208;2023-01-24T02:05:05;16.63;;;10.57;;
20294;SDS011;10306;52.128;5.208;2023-01-24T02:07:34;20.20;;;11.87;;
20294;SDS011;10306;52.128;5.208;2023-01-24T02:10:02;18.17;;;11.27;;
20294;SDS011;10306;52.128;5.208;2023-01-24T02:12:30;19.73;;;11.87;;
20294;SDS011;10306;52.128;5.208;2023-01-24T02:15:01;17.13;;;10.93;;
20294;SDS011;10306;52.128;5.208;2023-01-24T02:17:54;20.10;;;11.93;;
20294;SDS011;10306;52.128;5.208;2023-01-24T02:20:24;18.00;;;11.43;;
20294;SDS011;10306;52.128;5.208;2023-01-24T02:25:22;17.17;;;11.30;;
20294;SDS011;10306;52.128;5.208;2023-01-24T02:27:50;17.23;;;10.57;;
20294;SDS011;10306;52.128;5.208;2023-01-24T02:30:16;16.60;;;10.57;;
20294;SDS011;10306;52.128;5.208;2023-01-24T02:32:42;14.87;;;10.07;;
20294;SDS011;10306;52.128;5.208;2023-01-24T02:35:21;14.87;;;10.40;;
20294;SDS011;10306;52.128;5.208;2023-01-24T02:37:47;14.87;;;10.00;;
20294;SDS011;10306;52.128;5.208;2023-01-24T02:40:13;15.77;;;9.80;;
20294;SDS011;10306;52.128;5.208;2023-01-24T02:42:39;15.77;;;10.03;;
20294;SDS011;10306;52.128;5.208;2023-01-24T02:45:08;14.57;;;9.60;;
20294;SDS011;10306;52.128;5.208;2023-01-24T02:47:54;14.97;;;10.03;;
20294;SDS011;10306;52.128;5.208;2023-01-24T02:50:21;18.20;;;10.70;;
20294;SDS011;10306;52.128;5.208;2023-01-24T02:52:48;15.07;;;9.90;;
20294;SDS011;10306;52.128;5.208;2023-01-24T02:55:32;15.50;;;9.60;;
20294;SDS011;10306;52.128;5.208;2023-01-24T02:57:59;15.73;;;9.90;;
20294;SDS011;10306;52.128;5.208;2023-01-24T03:00:38;15.63;;;9.53;;
20294;SDS011;10306;52.128;5.208;2023-01-24T03:03:05;14.70;;;9.73;;
20294;SDS011;10306;52.128;5.208;2023-01-24T03:05:31;15.27;;;10.20;;
20294;SDS011;10306;52.128;5.208;2023-01-24T03:08:16;16.70;;;9.90;;
20294;SDS011;10306;52.128;5.208;2023-01-24T03:10:42;17.00;;;10.23;;
20294;SDS011;10306;52.128;5.208;2023-01-24T03:13:11;15.17;;;10.13;;
20294;SDS011;10306;52.128;5.208;2023-01-24T03:15:58;14.97;;;9.40;;
20294;SDS011;10306;52.128;5.208;2023-01-24T03:18:43;14.83;;;10.23;;
20294;SDS011;10306;52.128;5.208;2023-01-24T03:21:27;14.57;;;9.47;;
20294;SDS011;10306;52.128;5.208;2023-01-24T03:24:12;16.23;;;10.40;;
20294;SDS011;10306;52.128;5.208;2023-01-24T03:26:56;15.03;;;9.77;;
20294;SDS011;10306;52.128;5.208;2023-01-24T03:29:41;14.97;;;10.57;;
20294;SDS011;10306;52.128;5.208;2023-01-24T03:32:25;13.67;;;9.40;;
20294;SDS011;10306;52.128;5.208;2023-01-24T03:35:10;18.40;;;10.70;;
20294;SDS011;10306;52.128;5.208;2023-01-24T03:37:36;14.27;;;9.87;;
20294;SDS011;10306;52.128;5.208;2023-01-24T03:40:20;15.57;;;10.30;;
20294;SDS011;10306;52.128;5.208;2023-01-24T03:42:46;16.07;;;10.17;;
20294;SDS011;10306;52.128;5.208;2023-01-24T03:45:22;14.27;;;9.90;;
20294;SDS011;10306;52.128;5.208;2023-01-24T03:47:50;14.10;;;10.10;;
20294;SDS011;10306;52.128;5.208;2023-01-24T03:50:23;14.80;;;10.97;;
20294;SDS011;10306;52.128;5.208;2023-01-24T03:53:08;15.53;;;10.00;;
20294;SDS011;10306;52.128;5.208;2023-01-24T03:55:34;16.27;;;11.03;;
20294;SDS011;10306;52.128;5.208;2023-01-24T03:58:01;18.33;;;11.47;;
20294;SDS011;10306;52.128;5.208;2023-01-24T04:00:27;17.03;;;10.20;;
20294;SDS011;10306;52.128;5.208;2023-01-24T04:02:53;17.27;;;9.83;;
20294;SDS011;10306;52.128;5.208;2023-01-24T04:05:19;16.73;;;10.27;;
20294;SDS011;10306;52.128;5.208;2023-01-24T04:07:45;16.57;;;10.07;;
20294;SDS011;10306;52.128;5.208;2023-01-24T04:10:11;20.37;;;11.20;;
20294;SDS011;10306;52.128;5.208;2023-01-24T04:12:38;16.27;;;10.57;;
20294;SDS011;10306;52.128;5.208;2023-01-24T04:15:05;15.03;;;10.23;;
20294;SDS011;10306;52.128;5.208;2023-01-24T04:17:31;16.33;;;10.60;;
20294;SDS011;10306;52.128;5.208;2023-01-24T04:19:57;13.50;;;9.87;;
20294;SDS011;10306;52.128;5.208;2023-01-24T04:22:23;14.93;;;9.60;;
20294;SDS011;10306;52.128;5.208;2023-01-24T04:24:49;16.17;;;9.73;;
20294;SDS011;10306;52.128;5.208;2023-01-24T04:27:15;14.80;;;10.30;;
20294;SDS011;10306;52.128;5.208;2023-01-24T04:29:41;15.97;;;10.73;;
20294;SDS011;10306;52.128;5.208;2023-01-24T04:32:07;15.87;;;10.63;;
20294;SDS011;10306;52.128;5.208;2023-01-24T04:34:33;17.10;;;9.73;;
20294;SDS011;10306;52.128;5.208;2023-01-24T04:36:59;15.83;;;10.07;;
20294;SDS011;10306;52.128;5.208;2023-01-24T04:39:25;15.97;;;10.20;;
20294;SDS011;10306;52.128;5.208;2023-01-24T04:41:51;14.83;;;10.20;;
20294;SDS011;10306;52.128;5.208;2023-01-24T04:44:17;15.80;;;10.67;;
20294;SDS011;10306;52.128;5.208;2023-01-24T04:46:43;16.43;;;10.00;;
20294;SDS011;10306;52.128;5.208;2023-01-24T04:49:09;15.17;;;10.97;;
20294;SDS011;10306;52.128;5.208;2023-01-24T04:51:35;15.63;;;10.80;;
20294;SDS011;10306;52.128;5.208;2023-01-24T04:54:01;15.90;;;9.60;;
20294;SDS011;10306;52.128;5.208;2023-01-24T04:56:27;16.60;;;10.73;;
20294;SDS011;10306;52.128;5.208;2023-01-24T04:58:53;17.33;;;10.67;;
20294;SDS011;10306;52.128;5.208;2023-01-24T05:01:19;16.20;;;10.50;;
20294;SDS011;10306;52.128;5.208;2023-01-24T05:03:45;18.77;;;11.77;;
20294;SDS011;10306;52.128;5.208;2023-01-24T05:06:11;15.67;;;10.23;;
20294;SDS011;10306;52.128;5.208;2023-01-24T05:08:37;15.83;;;11.23;;
20294;SDS011;10306;52.128;5.208;2023-01-24T05:11:03;17.47;;;11.20;;
20294;SDS011;10306;52.128;5.208;2023-01-24T05:13:29;18.90;;;11.90;;
20294;SDS011;10306;52.128;5.208;2023-01-24T05:15:55;18.60;;;11.43;;
20294;SDS011;10306;52.128;5.208;2023-01-24T05:18:21;17.30;;;11.23;;
20294;SDS011;10306;52.128;5.208;2023-01-24T05:20:47;16.13;;;11.03;;
20294;SDS011;10306;52.128;5.208;2023-01-24T05:23:13;18.27;;;11.63;;
20294;SDS011;10306;52.128;5.208;2023-01-24T05:25:39;18.40;;;11.50;;
20294;SDS011;10306;52.128;5.208;2023-01-24T05:28:05;18.43;;;11.30;;
20294;SDS011;10306;52.128;5.208;2023-01-24T05:30:31;19.40;;;11.17;;
20294;SDS011;10306;52.128;5.208;2023-01-24T05:32:57;18.73;;;11.83;;
20294;SDS011;10306;52.128;5.208;2023-01-24T05:35:23;18.67;;;11.57;;
20294;SDS011;10306;52.128;5.208;2023-01-24T05:37:49;18.03;;;11.57;;
20294;SDS011;10306;52.128;5.208;2023-01-24T05:40:16;16.73;;;10.60;;
20294;SDS011;10306;52.128;5.208;2023-01-24T05:42:42;16.87;;;10.73;;
20294;SDS011;10306;52.128;5.208;2023-01-24T05:45:08;18.37;;;11.40;;
20294;SDS011;10306;52.128;5.208;2023-01-24T05:47:34;16.53;;;10.93;;
20294;SDS011;10306;52.128;5.208;2023-01-24T05:50:00;19.23;;;12.40;;
20294;SDS011;10306;52.128;5.208;2023-01-24T05:52:26;22.83;;;12.50;;
20294;SDS011;10306;52.128;5.208;2023-01-24T05:54:52;19.33;;;12.63;;
20294;SDS011;10306;52.128;5.208;2023-01-24T05:57:18;19.17;;;11.83;;
20294;SDS011;10306;52.128;5.208;2023-01-24T05:59:44;22.33;;;12.23;;
20294;SDS011;10306;52.128;5.208;2023-01-24T06:02:10;22.20;;;12.30;;
20294;SDS011;10306;52.128;5.208;2023-01-24T06:04:36;21.57;;;12.07;;
20294;SDS011;10306;52.128;5.208;2023-01-24T06:07:02;20.60;;;11.77;;
20294;SDS011;10306;52.128;5.208;2023-01-24T06:09:28;20.40;;;12.30;;
20294;SDS011;10306;52.128;5.208;2023-01-24T06:11:54;22.17;;;11.60;;
20294;SDS011;10306;52.128;5.208;2023-01-24T06:14:20;18.87;;;12.23;;
20294;SDS011;10306;52.128;5.208;2023-01-24T06:16:46;18.80;;;12.23;;
20294;SDS011;10306;52.128;5.208;2023-01-24T06:19:13;22.30;;;13.77;;
20294;SDS011;10306;52.128;5.208;2023-01-24T06:24:14;26.63;;;13.60;;
20294;SDS011;10306;52.128;5.208;2023-01-24T06:26:41;19.27;;;12.50;;
20294;SDS011;10306;52.128;5.208;2023-01-24T06:29:08;20.13;;;12.37;;
20294;SDS011;10306;52.128;5.208;2023-01-24T06:31:46;23.57;;;13.33;;
20294;SDS011;10306;52.128;5.208;2023-01-24T06:34:34;20.73;;;13.00;;
20294;SDS011;10306;52.128;5.208;2023-01-24T06:39:27;26.37;;;13.97;;
20294;SDS011;10306;52.128;5.208;2023-01-24T06:41:53;21.73;;;13.20;;
20294;SDS011;10306;52.128;5.208;2023-01-24T06:44:19;22.27;;;13.27;;
20294;SDS011;10306;52.128;5.208;2023-01-24T06:46:45;23.53;;;13.37;;
20294;SDS011;10306;52.128;5.208;2023-01-24T06:49:11;22.47;;;13.60;;
20294;SDS011;10306;52.128;5.208;2023-01-24T06:51:37;24.50;;;13.47;;
20294;SDS011;10306;52.128;5.208;2023-01-24T06:54:03;22.97;;;13.63;;
20294;SDS011;10306;52.128;5.208;2023-01-24T06:56:29;22.13;;;12.77;;
20294;SDS011;10306;52.128;5.208;2023-01-24T06:58:55;23.53;;;13.60;;
20294;SDS011;10306;52.128;5.208;2023-01-24T07:01:21;22.33;;;13.80;;
20294;SDS011;10306;52.128;5.208;2023-01-24T07:03:47;26.13;;;13.33;;
20294;SDS011;10306;52.128;5.208;2023-01-24T07:06:13;23.70;;;13.60;;
20294;SDS011;10306;52.128;5.208;2023-01-24T07:08:40;20.83;;;13.00;;
20294;SDS011;10306;52.128;5.208;2023-01-24T07:11:06;22.13;;;13.00;;
20294;SDS011;10306;52.128;5.208;2023-01-24T07:13:32;22.23;;;13.47;;
20294;SDS011;10306;52.128;5.208;2023-01-24T07:16:02;25.83;;;14.07;;
20294;SDS011;10306;52.128;5.208;2023-01-24T07:18:28;23.47;;;12.77;;
20294;SDS011;10306;52.128;5.208;2023-01-24T07:20:54;22.63;;;13.23;;
20294;SDS011;10306;52.128;5.208;2023-01-24T07:23:24;20.93;;;12.67;;
20294;SDS011;10306;52.128;5.208;2023-01-24T07:25:53;20.77;;;12.40;;
20294;SDS011;10306;52.128;5.208;2023-01-24T07:28:19;23.07;;;13.10;;
20294;SDS011;10306;52.128;5.208;2023-01-24T07:30:46;23.00;;;13.50;;
20294;SDS011;10306;52.128;5.208;2023-01-24T07:33:12;21.47;;;13.10;;
20294;SDS011;10306;52.128;5.208;2023-01-24T07:35:39;23.50;;;12.47;;
20294;SDS011;10306;52.128;5.208;2023-01-24T07:38:05;24.00;;;12.90;;
20294;SDS011;10306;52.128;5.208;2023-01-24T07:40:31;21.93;;;12.47;;
20294;SDS011;10306;52.128;5.208;2023-01-24T07:42:58;21.90;;;12.53;;
20294;SDS011;10306;52.128;5.208;2023-01-24T07:45:25;21.07;;;11.97;;
20294;SDS011;10306;52.128;5.208;2023-01-24T07:47:55;22.40;;;13.03;;
20294;SDS011;10306;52.128;5.208;2023-01-24T07:50:21;19.90;;;12.57;;
20294;SDS011;10306;52.128;5.208;2023-01-24T07:52:51;20.43;;;12.43;;
20294;SDS011;10306;52.128;5.208;2023-01-24T07:55:18;20.80;;;12.47;;
20294;SDS011;10306;52.128;5.208;2023-01-24T07:57:44;22.80;;;12.30;;
20294;SDS011;10306;52.128;5.208;2023-01-24T08:00:10;23.20;;;13.30;;
20294;SDS011;10306;52.128;5.208;2023-01-24T08:02:36;20.37;;;12.37;;
20294;SDS011;10306;52.128;5.208;2023-01-24T08:05:02;23.07;;;13.50;;
20294;SDS011;10306;52.128;5.208;2023-01-24T08:07:28;21.17;;;12.83;;
20294;SDS011;10306;52.128;5.208;2023-01-24T08:09:54;22.40;;;12.80;;
20294;SDS011;10306;52.128;5.208;2023-01-24T08:12:20;20.03;;;11.90;;
20294;SDS011;10306;52.128;5.208;2023-01-24T08:14:46;19.80;;;12.50;;
20294;SDS011;10306;52.128;5.208;2023-01-24T08:17:12;18.03;;;11.63;;
20294;SDS011;10306;52.128;5.208;2023-01-24T08:19:38;20.87;;;12.20;;
20294;SDS011;10306;52.128;5.208;2023-01-24T08:22:04;21.73;;;13.47;;
20294;SDS011;10306;52.128;5.208;2023-01-24T08:24:30;22.27;;;12.97;;
20294;SDS011;10306;52.128;5.208;2023-01-24T08:26:56;19.73;;;12.03;;
20294;SDS011;10306;52.128;5.208;2023-01-24T08:29:22;19.60;;;12.63;;
20294;SDS011;10306;52.128;5.208;2023-01-24T08:31:48;20.17;;;12.50;;
20294;SDS011;10306;52.128;5.208;2023-01-24T08:34:14;21.83;;;12.40;;
20294;SDS011;10306;52.128;5.208;2023-01-24T08:36:40;24.27;;;13.77;;
20294;SDS011;10306;52.128;5.208;2023-01-24T08:39:06;23.33;;;13.70;;
20294;SDS011;10306;52.128;5.208;2023-01-24T08:41:32;22.73;;;12.97;;
20294;SDS011;10306;52.128;5.208;2023-01-24T08:43:58;21.37;;;12.20;;
20294;SDS011;10306;52.128;5.208;2023-01-24T08:46:25;23.13;;;12.90;;
20294;SDS011;10306;52.128;5.208;2023-01-24T08:48:51;21.63;;;12.83;;
20294;SDS011;10306;52.128;5.208;2023-01-24T08:51:17;23.87;;;12.97;;
20294;SDS011;10306;52.128;5.208;2023-01-24T08:53:43;21.10;;;12.47;;
20294;SDS011;10306;52.128;5.208;2023-01-24T08:56:09;21.80;;;13.60;;
20294;SDS011;10306;52.128;5.208;2023-01-24T08:58:35;21.07;;;12.60;;
20294;SDS011;10306;52.128;5.208;2023-01-24T09:01:05;19.80;;;12.17;;
20294;SDS011;10306;52.128;5.208;2023-01-24T09:03:31;24.03;;;13.00;;
20294;SDS011;10306;52.128;5.208;2023-01-24T09:05:57;21.70;;;12.00;;
20294;SDS011;10306;52.128;5.208;2023-01-24T09:08:23;22.73;;;12.80;;
20294;SDS011;10306;52.128;5.208;2023-01-24T09:10:49;20.80;;;12.73;;
20294;SDS011;10306;52.128;5.208;2023-01-24T09:13:15;22.50;;;12.90;;
20294;SDS011;10306;52.128;5.208;2023-01-24T09:15:41;20.30;;;11.70;;
20294;SDS011;10306;52.128;5.208;2023-01-24T09:18:07;21.43;;;12.53;;
20294;SDS011;10306;52.128;5.208;2023-01-24T09:20:33;19.57;;;12.30;;
20294;SDS011;10306;52.128;5.208;2023-01-24T09:22:59;19.33;;;11.87;;
20294;SDS011;10306;52.128;5.208;2023-01-24T09:25:25;21.37;;;12.07;;
20294;SDS011;10306;52.128;5.208;2023-01-24T09:27:52;22.33;;;12.80;;
20294;SDS011;10306;52.128;5.208;2023-01-24T09:30:18;19.03;;;11.93;;
20294;SDS011;10306;52.128;5.208;2023-01-24T09:32:45;17.50;;;10.87;;
20294;SDS011;10306;52.128;5.208;2023-01-24T09:35:11;21.70;;;11.73;;
20294;SDS011;10306;52.128;5.208;2023-01-24T09:37:37;19.93;;;11.87;;
20294;SDS011;10306;52.128;5.208;2023-01-24T09:40:05;21.17;;;12.30;;
20294;SDS011;10306;52.128;5.208;2023-01-24T09:42:38;21.37;;;12.33;;
20294;SDS011;10306;52.128;5.208;2023-01-24T09:50:17;18.27;;;11.57;;
20294;SDS011;10306;52.128;5.208;2023-01-24T09:52:45;19.47;;;11.90;;
20294;SDS011;10306;52.128;5.208;2023-01-24T09:55:19;20.73;;;12.27;;
20294;SDS011;10306;52.128;5.208;2023-01-24T09:57:55;20.90;;;11.73;;
20294;SDS011;10306;52.128;5.208;2023-01-24T10:00:26;21.80;;;12.60;;
20294;SDS011;10306;52.128;5.208;2023-01-24T10:02:54;21.60;;;12.00;;
20294;SDS011;10306;52.128;5.208;2023-01-24T10:05:21;20.87;;;12.00;;
20294;SDS011;10306;52.128;5.208;2023-01-24T10:07:56;20.60;;;11.60;;
20294;SDS011;10306;52.128;5.208;2023-01-24T10:10:37;20.03;;;10.90;;
20294;SDS011;10306;52.128;5.208;2023-01-24T10:15:39;21.17;;;12.43;;
20294;SDS011;10306;52.128;5.208;2023-01-24T10:18:14;19.77;;;12.10;;
20294;SDS011;10306;52.128;5.208;2023-01-24T10:20:56;20.53;;;11.93;;
20294;SDS011;10306;52.128;5.208;2023-01-24T10:23:42;19.17;;;10.90;;
20294;SDS011;10306;52.128;5.208;2023-01-24T10:26:22;20.77;;;11.17;;
20294;SDS011;10306;52.128;5.208;2023-01-24T10:28:49;16.97;;;11.13;;
20294;SDS011;10306;52.128;5.208;2023-01-24T10:31:34;19.10;;;11.33;;
20294;SDS011;10306;52.128;5.208;2023-01-24T10:34:09;19.30;;;11.57;;
20294;SDS011;10306;52.128;5.208;2023-01-24T10:36:43;21.00;;;11.47;;
20294;SDS011;10306;52.128;5.208;2023-01-24T10:39:10;22.03;;;11.63;;
20294;SDS011;10306;52.128;5.208;2023-01-24T10:41:37;18.27;;;11.00;;
20294;SDS011;10306;52.128;5.208;2023-01-24T10:49:24;20.80;;;11.40;;
20294;SDS011;10306;52.128;5.208;2023-01-24T10:52:07;18.57;;;11.40;;
20294;SDS011;10306;52.128;5.208;2023-01-24T10:54:50;20.60;;;11.87;;
20294;SDS011;10306;52.128;5.208;2023-01-24T10:59:44;19.47;;;11.13;;
20294;SDS011;10306;52.128;5.208;2023-01-24T11:02:18;18.83;;;10.87;;
20294;SDS011;10306;52.128;5.208;2023-01-24T11:04:45;19.33;;;11.53;;
20294;SDS011;10306;52.128;5.208;2023-01-24T11:07:23;22.20;;;11.40;;
20294;SDS011;10306;52.128;5.208;2023-01-24T11:09:52;21.20;;;11.60;;
20294;SDS011;10306;52.128;5.208;2023-01-24T11:12:18;24.33;;;12.07;;
20294;SDS011;10306;52.128;5.208;2023-01-24T11:14:46;20.47;;;11.30;;
20294;SDS011;10306;52.128;5.208;2023-01-24T11:17:32;18.73;;;11.23;;
20294;SDS011;10306;52.128;5.208;2023-01-24T11:20:02;20.37;;;11.80;;
20294;SDS011;10306;52.128;5.208;2023-01-24T11:22:31;17.97;;;11.53;;
20294;SDS011;10306;52.128;5.208;2023-01-24T11:25:01;21.13;;;11.53;;
20294;SDS011;10306;52.128;5.208;2023-01-24T11:27:28;19.10;;;11.40;;
20294;SDS011;10306;52.128;5.208;2023-01-24T11:32:52;19.37;;;11.63;;
20294;SDS011;10306;52.128;5.208;2023-01-24T11:35:25;19.83;;;11.63;;
20294;SDS011;10306;52.128;5.208;2023-01-24T11:53:05;17.43;;;10.10;;
20294;SDS011;10306;52.128;5.208;2023-01-24T12:13:21;17.17;;;10.23;;
20294;SDS011;10306;52.128;5.208;2023-01-24T12:20:59;18.43;;;10.57;;
20294;SDS011;10306;52.128;5.208;2023-01-24T12:26:05;17.90;;;9.90;;
20294;SDS011;10306;52.128;5.208;2023-01-24T12:28:33;18.97;;;10.33;;
20294;SDS011;10306;52.128;5.208;2023-01-24T12:31:00;17.70;;;10.33;;
20294;SDS011;10306;52.128;5.208;2023-01-24T12:36:00;14.47;;;9.93;;
20294;SDS011;10306;52.128;5.208;2023-01-24T12:41:01;16.73;;;10.63;;
20294;SDS011;10306;52.128;5.208;2023-01-24T12:45:59;17.40;;;9.77;;
20294;SDS011;10306;52.128;5.208;2023-01-24T12:48:33;17.27;;;10.07;;
20294;SDS011;10306;52.128;5.208;2023-01-24T12:54:11;21.03;;;10.20;;
20294;SDS011;10306;52.128;5.208;2023-01-24T12:59:08;18.90;;;11.40;;
20294;SDS011;10306;52.128;5.208;2023-01-24T13:04:20;16.47;;;10.23;;
20294;SDS011;10306;52.128;5.208;2023-01-24T13:11:43;17.97;;;10.93;;
20294;SDS011;10306;52.128;5.208;2023-01-24T13:17:08;16.87;;;9.70;;
20294;SDS011;10306;52.128;5.208;2023-01-24T13:27:55;15.73;;;10.13;;
20294;SDS011;10306;52.128;5.208;2023-01-24T13:32:54;17.40;;;10.60;;
20294;SDS011;10306;52.128;5.208;2023-01-24T13:35:23;17.70;;;11.03;;
20294;SDS011;10306;52.128;5.208;2023-01-24T13:37:53;16.50;;;10.73;;
20294;SDS011;10306;52.128;5.208;2023-01-24T13:40:21;16.93;;;11.17;;
20294;SDS011;10306;52.128;5.208;2023-01-24T13:42:48;17.80;;;11.43;;
20294;SDS011;10306;52.128;5.208;2023-01-24T13:47:50;16.47;;;10.30;;
20294;SDS011;10306;52.128;5.208;2023-01-24T13:50:20;15.50;;;10.43;;
20294;SDS011;10306;52.128;5.208;2023-01-24T13:52:47;18.97;;;11.80;;
20294;SDS011;10306;52.128;5.208;2023-01-24T13:57:46;19.53;;;11.27;;
20294;SDS011;10306;52.128;5.208;2023-01-24T14:00:16;17.80;;;11.47;;
20294;SDS011;10306;52.128;5.208;2023-01-24T14:08:16;12.87;;;9.07;;
20294;SDS011;10306;52.128;5.208;2023-01-24T14:13:39;19.43;;;11.57;;
20294;SDS011;10306;52.128;5.208;2023-01-24T14:15:51;17.93;;;11.13;;
20294;SDS011;10306;52.128;5.208;2023-01-24T14:21:02;16.13;;;10.40;;
20294;SDS011;10306;52.128;5.208;2023-01-24T14:23:28;16.53;;;10.47;;
20294;SDS011;10306;52.128;5.208;2023-01-24T14:25:55;17.97;;;11.00;;
20294;SDS011;10306;52.128;5.208;2023-01-24T14:28:39;21.73;;;11.13;;
20294;SDS011;10306;52.128;5.208;2023-01-24T14:31:07;18.87;;;10.93;;
20294;SDS011;10306;52.128;5.208;2023-01-24T14:33:46;16.57;;;10.70;;
20294;SDS011;10306;52.128;5.208;2023-01-24T14:36:27;17.57;;;11.00;;
20294;SDS011;10306;52.128;5.208;2023-01-24T14:41:39;14.97;;;10.33;;
20294;SDS011;10306;52.128;5.208;2023-01-24T14:44:19;16.63;;;11.07;;
20294;SDS011;10306;52.128;5.208;2023-01-24T14:46:54;17.57;;;11.10;;
20294;SDS011;10306;52.128;5.208;2023-01-24T14:51:59;20.90;;;12.33;;
20294;SDS011;10306;52.128;5.208;2023-01-24T14:54:25;19.80;;;12.43;;
20294;SDS011;10306;52.128;5.208;2023-01-24T14:56:52;21.40;;;12.30;;
20294;SDS011;10306;52.128;5.208;2023-01-24T14:59:18;21.67;;;12.17;;
20294;SDS011;10306;52.128;5.208;2023-01-24T15:01:45;20.87;;;12.87;;
20294;SDS011;10306;52.128;5.208;2023-01-24T15:07:02;23.70;;;13.23;;
20294;SDS011;10306;52.128;5.208;2023-01-24T15:09:29;18.07;;;11.53;;
20294;SDS011;10306;52.128;5.208;2023-01-24T15:11:55;22.10;;;13.30;;
20294;SDS011;10306;52.128;5.208;2023-01-24T15:14:21;20.47;;;12.20;;
20294;SDS011;10306;52.128;5.208;2023-01-24T15:16:48;24.57;;;12.67;;
20294;SDS011;10306;52.128;5.208;2023-01-24T15:19:22;22.57;;;12.20;;
20294;SDS011;10306;52.128;5.208;2023-01-24T15:21:50;21.10;;;12.93;;
20294;SDS011;10306;52.128;5.208;2023-01-24T15:24:24;18.97;;;11.70;;
20294;SDS011;10306;52.128;5.208;2023-01-24T15:26:51;19.10;;;12.57;;
20294;SDS011;10306;52.128;5.208;2023-01-24T15:34:49;19.33;;;11.97;;
20294;SDS011;10306;52.128;5.208;2023-01-24T15:37:15;18.60;;;11.73;;
20294;SDS011;10306;52.128;5.208;2023-01-24T15:39:41;20.33;;;12.50;;
20294;SDS011;10306;52.128;5.208;2023-01-24T15:42:17;18.77;;;11.53;;
20294;SDS011;10306;52.128;5.208;2023-01-24T15:45:03;20.47;;;12.17;;
20294;SDS011;10306;52.128;5.208;2023-01-24T15:47:29;19.27;;;11.90;;
20294;SDS011;10306;52.128;5.208;2023-01-24T15:53:20;21.00;;;12.10;;
20294;SDS011;10306;52.128;5.208;2023-01-24T15:55:47;19.00;;;12.20;;
20294;SDS011;10306;52.128;5.208;2023-01-24T15:58:13;22.70;;;12.87;;
20294;SDS011;10306;52.128;5.208;2023-01-24T16:00:39;20.43;;;12.43;;
20294;SDS011;10306;52.128;5.208;2023-01-24T16:03:05;18.70;;;11.70;;
20294;SDS011;10306;52.128;5.208;2023-01-24T16:05:31;21.10;;;12.60;;
20294;SDS011;10306;52.128;5.208;2023-01-24T16:07:57;24.13;;;12.90;;
20294;SDS011;10306;52.128;5.208;2023-01-24T16:10:23;23.33;;;12.97;;
20294;SDS011;10306;52.128;5.208;2023-01-24T16:12:49;18.80;;;12.70;;
20294;SDS011;10306;52.128;5.208;2023-01-24T16:15:17;23.90;;;12.97;;
20294;SDS011;10306;52.128;5.208;2023-01-24T16:17:43;17.23;;;11.67;;
20294;SDS011;10306;52.128;5.208;2023-01-24T16:20:16;19.07;;;12.43;;
20294;SDS011;10306;52.128;5.208;2023-01-24T16:22:42;20.67;;;12.47;;
20294;SDS011;10306;52.128;5.208;2023-01-24T16:25:11;18.80;;;12.20;;
20294;SDS011;10306;52.128;5.208;2023-01-24T16:27:38;20.37;;;12.27;;
20294;SDS011;10306;52.128;5.208;2023-01-24T16:30:05;18.73;;;11.03;;
20294;SDS011;10306;52.128;5.208;2023-01-24T16:32:31;19.57;;;12.43;;
20294;SDS011;10306;52.128;5.208;2023-01-24T16:34:58;23.73;;;12.93;;
20294;SDS011;10306;52.128;5.208;2023-01-24T16:37:24;23.70;;;13.97;;
20294;SDS011;10306;52.128;5.208;2023-01-24T16:39:50;20.83;;;13.30;;
20294;SDS011;10306;52.128;5.208;2023-01-24T16:42:16;21.60;;;13.00;;
20294;SDS011;10306;52.128;5.208;2023-01-24T16:44:43;21.20;;;13.30;;
20294;SDS011;10306;52.128;5.208;2023-01-24T16:47:09;17.70;;;11.23;;
20294;SDS011;10306;52.128;5.208;2023-01-24T16:49:35;23.27;;;11.87;;